sensor_id;sensor_type;location;lat;lon;timestamp;P1;durP1;ratioP1;P2;durP2;ratioP2
17890;SDS011;9071;48.220;14.480;2022-11-20T00:01:38;47.27;;;21.43;;
17890;SDS011;9071;48.220;14.480;2022-11-20T00:06:40;49.23;;;21.50;;
17890;SDS011;9071;48.220;14.480;2022-11-20T00:11:42;51.53;;;21.63;;
17890;SDS011;9071;48.220;14.480;2022-11-20T00:16:46;55.73;;;22.03;;
17890;SDS011;9071;48.220;14.480;2022-11-20T00:21:48;54.43;;;22.90;;
17890;SDS011;9071;48.220;14.480;2022-11-20T00:26:51;52.37;;;22.70;;
17890;SDS011;9071;48.220;14.480;2022-11-20T00:31:55;51.70;;;21.67;;
17890;SDS011;9071;48.220;14.480;2022-11-20T00:36:57;49.43;;;21.70;;
17890;SDS011;9071;48.220;14.480;2022-11-20T00:41:59;52.97;;;22.87;;
17890;SDS011;9071;48.220;14.480;2022-11-20T00:47:02;52.70;;;22.43;;
17890;SDS011;9071;48.220;14.480;2022-11-20T00:52:04;53.90;;;21.93;;
17890;SDS011;9071;48.220;14.480;2022-11-20T00:57:07;53.90;;;21.30;;
17890;SDS011;9071;48.220;14.480;2022-11-20T01:02:11;54.60;;;22.93;;
17890;SDS011;9071;48.220;14.480;2022-11-20T01:07:13;54.60;;;22.50;;
17890;SDS011;9071;48.220;14.480;2022-11-20T01:12:15;52.17;;;21.83;;
17890;SDS011;9071;48.220;14.480;2022-11-20T01:17:19;52.60;;;21.60;;
17890;SDS011;9071;48.220;14.480;2022-11-20T01:22:21;48.17;;;22.07;;
17890;SDS011;9071;48.220;14.480;2022-11-20T01:27:23;55.20;;;22.13;;
17890;SDS011;9071;48.220;14.480;2022-11-20T01:32:26;57.30;;;23.30;;
17890;SDS011;9071;48.220;14.480;2022-11-20T01:37:28;54.27;;;22.40;;
17890;SDS011;9071;48.220;14.480;2022-11-20T01:42:30;53.80;;;21.83;;
17890;SDS011;9071;48.220;14.480;2022-11-20T01:47:51;54.57;;;21.63;;
17890;SDS011;9071;48.220;14.480;2022-11-20T01:52:54;55.23;;;22.60;;
17890;SDS011;9071;48.220;14.480;2022-11-20T01:57:59;52.83;;;22.33;;
17890;SDS011;9071;48.220;14.480;2022-11-20T02:03:05;54.53;;;22.27;;
17890;SDS011;9071;48.220;14.480;2022-11-20T02:08:10;54.20;;;21.83;;
17890;SDS011;9071;48.220;14.480;2022-11-20T02:13:13;52.37;;;22.33;;
17890;SDS011;9071;48.220;14.480;2022-11-20T02:18:33;57.00;;;22.53;;
17890;SDS011;9071;48.220;14.480;2022-11-20T02:23:37;54.90;;;23.40;;
17890;SDS011;9071;48.220;14.480;2022-11-20T02:28:42;55.50;;;23.40;;
17890;SDS011;9071;48.220;14.480;2022-11-20T02:33:44;56.57;;;23.63;;
17890;SDS011;9071;48.220;14.480;2022-11-20T02:38:46;53.13;;;23.13;;
17890;SDS011;9071;48.220;14.480;2022-11-20T02:43:50;50.73;;;22.97;;
17890;SDS011;9071;48.220;14.480;2022-11-20T02:48:52;53.17;;;22.50;;
17890;SDS011;9071;48.220;14.480;2022-11-20T02:53:54;57.90;;;24.37;;
17890;SDS011;9071;48.220;14.480;2022-11-20T02:58:58;55.20;;;23.13;;
17890;SDS011;9071;48.220;14.480;2022-11-20T03:04:00;56.50;;;24.40;;
17890;SDS011;9071;48.220;14.480;2022-11-20T03:09:02;63.37;;;24.63;;
17890;SDS011;9071;48.220;14.480;2022-11-20T03:14:05;57.27;;;23.37;;
17890;SDS011;9071;48.220;14.480;2022-11-20T03:19:07;59.27;;;24.80;;
17890;SDS011;9071;48.220;14.480;2022-11-20T03:24:09;63.33;;;25.40;;
17890;SDS011;9071;48.220;14.480;2022-11-20T03:29:13;64.33;;;25.17;;
17890;SDS011;9071;48.220;14.480;2022-11-20T03:34:15;69.60;;;29.87;;
17890;SDS011;9071;48.220;14.480;2022-11-20T03:39:17;65.87;;;27.53;;
17890;SDS011;9071;48.220;14.480;2022-11-20T03:44:20;62.53;;;25.13;;
17890;SDS011;9071;48.220;14.480;2022-11-20T03:49:23;62.50;;;25.20;;
17890;SDS011;9071;48.220;14.480;2022-11-20T03:54:25;56.07;;;24.40;;
17890;SDS011;9071;48.220;14.480;2022-11-20T03:59:28;55.57;;;24.73;;
17890;SDS011;9071;48.220;14.480;2022-11-20T04:04:30;60.13;;;25.23;;
17890;SDS011;9071;48.220;14.480;2022-11-20T04:09:32;59.37;;;23.10;;
17890;SDS011;9071;48.220;14.480;2022-11-20T04:14:35;56.90;;;23.83;;
17890;SDS011;9071;48.220;14.480;2022-11-20T04:19:38;53.27;;;22.33;;
17890;SDS011;9071;48.220;14.480;2022-11-20T04:24:40;58.33;;;24.53;;
17890;SDS011;9071;48.220;14.480;2022-11-20T04:29:44;53.83;;;23.77;;
17890;SDS011;9071;48.220;14.480;2022-11-20T04:34:46;65.17;;;27.30;;
17890;SDS011;9071;48.220;14.480;2022-11-20T04:39:48;55.10;;;23.70;;
17890;SDS011;9071;48.220;14.480;2022-11-20T04:44:51;57.00;;;24.27;;
17890;SDS011;9071;48.220;14.480;2022-11-20T04:49:53;55.53;;;24.90;;
17890;SDS011;9071;48.220;14.480;2022-11-20T04:54:55;54.83;;;23.60;;
17890;SDS011;9071;48.220;14.480;2022-11-20T04:59:59;53.70;;;23.40;;
17890;SDS011;9071;48.220;14.480;2022-11-20T05:05:01;50.83;;;22.30;;
17890;SDS011;9071;48.220;14.480;2022-11-20T05:10:03;54.53;;;23.07;;
17890;SDS011;9071;48.220;14.480;2022-11-20T05:15:08;54.43;;;21.93;;
17890;SDS011;9071;48.220;14.480;2022-11-20T05:20:11;53.17;;;22.10;;
17890;SDS011;9071;48.220;14.480;2022-11-20T05:25:13;56.10;;;24.50;;
17890;SDS011;9071;48.220;14.480;2022-11-20T05:30:16;57.67;;;24.53;;
17890;SDS011;9071;48.220;14.480;2022-11-20T05:35:18;57.43;;;24.63;;
17890;SDS011;9071;48.220;14.480;2022-11-20T05:40:20;51.73;;;22.67;;
17890;SDS011;9071;48.220;14.480;2022-11-20T05:45:24;56.13;;;24.33;;
17890;SDS011;9071;48.220;14.480;2022-11-20T05:50:26;54.93;;;24.33;;
17890;SDS011;9071;48.220;14.480;2022-11-20T05:55:28;58.10;;;24.30;;
17890;SDS011;9071;48.220;14.480;2022-11-20T06:00:31;53.83;;;24.07;;
17890;SDS011;9071;48.220;14.480;2022-11-20T06:05:33;64.03;;;26.73;;
17890;SDS011;9071;48.220;14.480;2022-11-20T06:10:35;56.57;;;23.70;;
17890;SDS011;9071;48.220;14.480;2022-11-20T06:15:39;60.17;;;24.43;;
17890;SDS011;9071;48.220;14.480;2022-11-20T06:20:41;55.60;;;24.37;;
17890;SDS011;9071;48.220;14.480;2022-11-20T06:25:43;56.67;;;24.17;;
17890;SDS011;9071;48.220;14.480;2022-11-20T06:30:46;58.77;;;24.17;;
17890;SDS011;9071;48.220;14.480;2022-11-20T06:35:48;56.77;;;24.83;;
17890;SDS011;9071;48.220;14.480;2022-11-20T06:40:50;56.77;;;23.80;;
17890;SDS011;9071;48.220;14.480;2022-11-20T06:45:54;60.30;;;24.63;;
17890;SDS011;9071;48.220;14.480;2022-11-20T06:50:57;63.03;;;25.93;;
17890;SDS011;9071;48.220;14.480;2022-11-20T06:55:59;62.37;;;25.03;;
17890;SDS011;9071;48.220;14.480;2022-11-20T07:01:03;61.67;;;24.83;;
17890;SDS011;9071;48.220;14.480;2022-11-20T07:06:08;65.40;;;25.80;;
17890;SDS011;9071;48.220;14.480;2022-11-20T07:11:11;63.87;;;25.70;;
17890;SDS011;9071;48.220;14.480;2022-11-20T07:16:15;64.20;;;26.77;;
17890;SDS011;9071;48.220;14.480;2022-11-20T07:21:17;60.90;;;26.20;;
17890;SDS011;9071;48.220;14.480;2022-11-20T07:26:19;64.63;;;26.57;;
17890;SDS011;9071;48.220;14.480;2022-11-20T07:31:23;66.10;;;25.60;;
17890;SDS011;9071;48.220;14.480;2022-11-20T07:36:25;61.03;;;25.73;;
17890;SDS011;9071;48.220;14.480;2022-11-20T07:41:27;65.33;;;26.53;;
17890;SDS011;9071;48.220;14.480;2022-11-20T07:46:30;59.83;;;25.27;;
17890;SDS011;9071;48.220;14.480;2022-11-20T07:51:32;61.77;;;25.10;;
17890;SDS011;9071;48.220;14.480;2022-11-20T07:56:34;52.30;;;24.17;;
17890;SDS011;9071;48.220;14.480;2022-11-20T08:01:38;60.67;;;26.63;;
17890;SDS011;9071;48.220;14.480;2022-11-20T08:06:40;58.40;;;25.17;;
17890;SDS011;9071;48.220;14.480;2022-11-20T08:11:42;61.80;;;26.70;;
17890;SDS011;9071;48.220;14.480;2022-11-20T08:17:03;56.17;;;25.07;;
17890;SDS011;9071;48.220;14.480;2022-11-20T08:22:05;58.27;;;24.97;;
17890;SDS011;9071;48.220;14.480;2022-11-20T08:27:07;57.57;;;25.40;;
17890;SDS011;9071;48.220;14.480;2022-11-20T08:32:10;57.20;;;25.00;;
17890;SDS011;9071;48.220;14.480;2022-11-20T08:37:12;53.63;;;23.97;;
17890;SDS011;9071;48.220;14.480;2022-11-20T08:42:14;55.60;;;23.43;;
17890;SDS011;9071;48.220;14.480;2022-11-20T08:47:18;52.47;;;24.37;;
17890;SDS011;9071;48.220;14.480;2022-11-20T08:52:20;53.10;;;23.93;;
17890;SDS011;9071;48.220;14.480;2022-11-20T08:57:22;54.20;;;23.87;;
17890;SDS011;9071;48.220;14.480;2022-11-20T09:02:25;55.13;;;23.57;;
17890;SDS011;9071;48.220;14.480;2022-11-20T09:07:27;48.67;;;22.47;;
17890;SDS011;9071;48.220;14.480;2022-11-20T09:12:30;53.13;;;25.40;;
17890;SDS011;9071;48.220;14.480;2022-11-20T09:17:33;54.53;;;24.90;;
17890;SDS011;9071;48.220;14.480;2022-11-20T09:22:38;47.47;;;23.50;;
17890;SDS011;9071;48.220;14.480;2022-11-20T09:27:41;52.90;;;24.63;;
17890;SDS011;9071;48.220;14.480;2022-11-20T09:32:47;45.20;;;23.73;;
17890;SDS011;9071;48.220;14.480;2022-11-20T09:37:49;49.87;;;24.90;;
17890;SDS011;9071;48.220;14.480;2022-11-20T09:42:53;50.23;;;24.27;;
17890;SDS011;9071;48.220;14.480;2022-11-20T09:48:04;48.87;;;23.77;;
17890;SDS011;9071;48.220;14.480;2022-11-20T09:53:19;48.17;;;24.33;;
17890;SDS011;9071;48.220;14.480;2022-11-20T09:58:31;48.23;;;24.33;;
17890;SDS011;9071;48.220;14.480;2022-11-20T10:03:44;49.57;;;24.40;;
17890;SDS011;9071;48.220;14.480;2022-11-20T10:08:54;49.90;;;24.70;;
17890;SDS011;9071;48.220;14.480;2022-11-20T10:14:05;45.80;;;23.17;;
17890;SDS011;9071;48.220;14.480;2022-11-20T10:19:23;48.03;;;24.57;;
17890;SDS011;9071;48.220;14.480;2022-11-20T10:24:41;46.97;;;23.63;;
17890;SDS011;9071;48.220;14.480;2022-11-20T10:29:45;52.33;;;25.37;;
17890;SDS011;9071;48.220;14.480;2022-11-20T10:34:58;55.47;;;25.53;;
17890;SDS011;9071;48.220;14.480;2022-11-20T10:45:34;53.10;;;26.67;;
17890;SDS011;9071;48.220;14.480;2022-11-20T10:50:45;52.70;;;26.67;;
17890;SDS011;9071;48.220;14.480;2022-11-20T10:55:57;52.10;;;25.73;;
17890;SDS011;9071;48.220;14.480;2022-11-20T11:01:11;47.43;;;23.77;;
17890;SDS011;9071;48.220;14.480;2022-11-20T11:06:19;48.23;;;24.03;;
17890;SDS011;9071;48.220;14.480;2022-11-20T11:11:27;47.23;;;22.57;;
17890;SDS011;9071;48.220;14.480;2022-11-20T11:16:31;49.13;;;24.23;;
17890;SDS011;9071;48.220;14.480;2022-11-20T11:21:34;49.20;;;24.17;;
17890;SDS011;9071;48.220;14.480;2022-11-20T11:26:41;45.70;;;23.13;;
17890;SDS011;9071;48.220;14.480;2022-11-20T11:32:02;55.10;;;25.50;;
17890;SDS011;9071;48.220;14.480;2022-11-20T11:37:12;48.23;;;23.97;;
17890;SDS011;9071;48.220;14.480;2022-11-20T11:42:18;46.57;;;22.90;;
17890;SDS011;9071;48.220;14.480;2022-11-20T11:47:22;45.60;;;22.03;;
17890;SDS011;9071;48.220;14.480;2022-11-20T11:52:27;48.23;;;24.13;;
17890;SDS011;9071;48.220;14.480;2022-11-20T11:57:34;49.40;;;24.13;;
17890;SDS011;9071;48.220;14.480;2022-11-20T12:02:48;43.53;;;23.87;;
17890;SDS011;9071;48.220;14.480;2022-11-20T12:07:58;47.87;;;24.40;;
17890;SDS011;9071;48.220;14.480;2022-11-20T12:13:09;45.27;;;22.70;;
17890;SDS011;9071;48.220;14.480;2022-11-20T12:18:19;43.00;;;23.97;;
17890;SDS011;9071;48.220;14.480;2022-11-20T12:23:25;43.20;;;22.23;;
17890;SDS011;9071;48.220;14.480;2022-11-20T12:28:43;45.73;;;22.83;;
17890;SDS011;9071;48.220;14.480;2022-11-20T12:33:55;58.27;;;28.57;;
17890;SDS011;9071;48.220;14.480;2022-11-20T12:50:14;62.27;;;28.60;;
17890;SDS011;9071;48.220;14.480;2022-11-20T12:55:33;58.47;;;28.77;;
17890;SDS011;9071;48.220;14.480;2022-11-20T13:00:46;67.03;;;29.63;;
17890;SDS011;9071;48.220;14.480;2022-11-20T13:05:59;61.17;;;27.30;;
17890;SDS011;9071;48.220;14.480;2022-11-20T13:11:09;62.50;;;29.33;;
17890;SDS011;9071;48.220;14.480;2022-11-20T13:16:19;66.30;;;29.47;;
17890;SDS011;9071;48.220;14.480;2022-11-20T13:21:34;71.23;;;29.40;;
17890;SDS011;9071;48.220;14.480;2022-11-20T13:26:39;66.13;;;30.07;;
17890;SDS011;9071;48.220;14.480;2022-11-20T13:31:42;59.13;;;26.37;;
17890;SDS011;9071;48.220;14.480;2022-11-20T13:36:49;60.53;;;28.00;;
17890;SDS011;9071;48.220;14.480;2022-11-20T13:41:57;64.40;;;29.30;;
17890;SDS011;9071;48.220;14.480;2022-11-20T13:47:00;64.67;;;27.90;;
17890;SDS011;9071;48.220;14.480;2022-11-20T13:52:05;68.83;;;;;
17890;SDS011;9071;48.220;14.480;2022-11-20T13:57:44;72.80;;;31.23;;
17890;SDS011;9071;48.220;14.480;2022-11-20T14:03:07;70.80;;;29.43;;
17890;SDS011;9071;48.220;14.480;2022-11-20T14:08:13;69.77;;;31.50;;
17890;SDS011;9071;48.220;14.480;2022-11-20T14:13:23;61.10;;;28.23;;
17890;SDS011;9071;48.220;14.480;2022-11-20T14:18:26;64.50;;;29.03;;
17890;SDS011;9071;48.220;14.480;2022-11-20T14:23:29;64.37;;;30.43;;
17890;SDS011;9071;48.220;14.480;2022-11-20T14:28:32;62.67;;;28.50;;
17890;SDS011;9071;48.220;14.480;2022-11-20T14:33:34;64.77;;;28.80;;
17890;SDS011;9071;48.220;14.480;2022-11-20T14:38:38;66.03;;;29.50;;
17890;SDS011;9071;48.220;14.480;2022-11-20T14:43:44;63.20;;;30.87;;
17890;SDS011;9071;48.220;14.480;2022-11-20T14:48:48;64.50;;;28.83;;
17890;SDS011;9071;48.220;14.480;2022-11-20T14:53:52;67.73;;;30.17;;
17890;SDS011;9071;48.220;14.480;2022-11-20T14:58:58;61.77;;;30.67;;
17890;SDS011;9071;48.220;14.480;2022-11-20T15:04:01;87.47;;;36.70;;
17890;SDS011;9071;48.220;14.480;2022-11-20T15:09:12;75.50;;;33.47;;
17890;SDS011;9071;48.220;14.480;2022-11-20T15:14:17;65.33;;;31.33;;
17890;SDS011;9071;48.220;14.480;2022-11-20T15:19:20;62.53;;;30.10;;
17890;SDS011;9071;48.220;14.480;2022-11-20T15:24:23;69.03;;;30.77;;
17890;SDS011;9071;48.220;14.480;2022-11-20T15:29:26;60.90;;;29.90;;
17890;SDS011;9071;48.220;14.480;2022-11-20T15:34:29;67.27;;;30.90;;
17890;SDS011;9071;48.220;14.480;2022-11-20T15:39:31;72.50;;;31.50;;
17890;SDS011;9071;48.220;14.480;2022-11-20T15:44:35;71.10;;;33.87;;
17890;SDS011;9071;48.220;14.480;2022-11-20T15:49:37;72.90;;;34.57;;
17890;SDS011;9071;48.220;14.480;2022-11-20T15:54:39;75.53;;;34.47;;
17890;SDS011;9071;48.220;14.480;2022-11-20T15:59:43;75.17;;;34.40;;
17890;SDS011;9071;48.220;14.480;2022-11-20T16:04:45;77.50;;;33.47;;
17890;SDS011;9071;48.220;14.480;2022-11-20T16:09:47;75.67;;;33.03;;
17890;SDS011;9071;48.220;14.480;2022-11-20T16:14:50;82.63;;;32.80;;
17890;SDS011;9071;48.220;14.480;2022-11-20T16:20:09;87.73;;;37.10;;
17890;SDS011;9071;48.220;14.480;2022-11-20T16:25:12;75.00;;;32.83;;
17890;SDS011;9071;48.220;14.480;2022-11-20T16:30:15;74.70;;;33.17;;
17890;SDS011;9071;48.220;14.480;2022-11-20T16:35:18;76.43;;;33.47;;
17890;SDS011;9071;48.220;14.480;2022-11-20T16:40:20;75.70;;;35.37;;
17890;SDS011;9071;48.220;14.480;2022-11-20T16:45:23;79.67;;;33.70;;
17890;SDS011;9071;48.220;14.480;2022-11-20T16:50:25;74.27;;;31.77;;
17890;SDS011;9071;48.220;14.480;2022-11-20T16:55:27;70.63;;;32.80;;
17890;SDS011;9071;48.220;14.480;2022-11-20T17:00:31;77.47;;;35.83;;
17890;SDS011;9071;48.220;14.480;2022-11-20T17:05:36;79.23;;;34.53;;
17890;SDS011;9071;48.220;14.480;2022-11-20T17:10:38;68.37;;;31.43;;
17890;SDS011;9071;48.220;14.480;2022-11-20T17:15:41;69.50;;;32.23;;
17890;SDS011;9071;48.220;14.480;2022-11-20T17:20:50;67.77;;;31.63;;
17890;SDS011;9071;48.220;14.480;2022-11-20T17:25:52;69.67;;;30.90;;
17890;SDS011;9071;48.220;14.480;2022-11-20T17:30:59;71.20;;;31.60;;
17890;SDS011;9071;48.220;14.480;2022-11-20T17:36:01;66.10;;;29.13;;
17890;SDS011;9071;48.220;14.480;2022-11-20T17:41:04;62.97;;;28.07;;
17890;SDS011;9071;48.220;14.480;2022-11-20T17:46:09;59.03;;;26.03;;
17890;SDS011;9071;48.220;14.480;2022-11-20T17:51:13;53.07;;;25.70;;
17890;SDS011;9071;48.220;14.480;2022-11-20T17:56:17;50.83;;;25.70;;
17890;SDS011;9071;48.220;14.480;2022-11-20T18:01:38;51.03;;;25.10;;
17890;SDS011;9071;48.220;14.480;2022-11-20T18:06:42;52.77;;;26.30;;
17890;SDS011;9071;48.220;14.480;2022-11-20T18:11:44;53.73;;;26.27;;
17890;SDS011;9071;48.220;14.480;2022-11-20T18:16:48;52.43;;;26.73;;
17890;SDS011;9071;48.220;14.480;2022-11-20T18:21:52;53.43;;;27.03;;
17890;SDS011;9071;48.220;14.480;2022-11-20T18:26:54;56.90;;;27.13;;
17890;SDS011;9071;48.220;14.480;2022-11-20T18:31:58;67.03;;;33.73;;
17890;SDS011;9071;48.220;14.480;2022-11-20T18:37:00;77.40;;;37.67;;
17890;SDS011;9071;48.220;14.480;2022-11-20T18:42:03;74.90;;;34.13;;
17890;SDS011;9071;48.220;14.480;2022-11-20T18:47:24;69.63;;;33.37;;
17890;SDS011;9071;48.220;14.480;2022-11-20T18:52:29;71.50;;;34.93;;
17890;SDS011;9071;48.220;14.480;2022-11-20T18:57:33;84.60;;;40.50;;
17890;SDS011;9071;48.220;14.480;2022-11-20T19:02:37;76.63;;;35.60;;
17890;SDS011;9071;48.220;14.480;2022-11-20T19:07:39;81.40;;;38.33;;
17890;SDS011;9071;48.220;14.480;2022-11-20T19:12:41;91.50;;;39.83;;
17890;SDS011;9071;48.220;14.480;2022-11-20T19:17:44;93.70;;;39.80;;
17890;SDS011;9071;48.220;14.480;2022-11-20T19:22:48;102.90;;;43.40;;
17890;SDS011;9071;48.220;14.480;2022-11-20T19:27:50;98.57;;;41.87;;
17890;SDS011;9071;48.220;14.480;2022-11-20T19:32:54;95.90;;;43.47;;
17890;SDS011;9071;48.220;14.480;2022-11-20T19:37:57;90.37;;;40.33;;
17890;SDS011;9071;48.220;14.480;2022-11-20T19:42:59;92.50;;;38.57;;
17890;SDS011;9071;48.220;14.480;2022-11-20T19:48:02;90.30;;;38.27;;
17890;SDS011;9071;48.220;14.480;2022-11-20T19:53:04;78.07;;;36.60;;
17890;SDS011;9071;48.220;14.480;2022-11-20T19:58:06;82.70;;;35.47;;
17890;SDS011;9071;48.220;14.480;2022-11-20T20:03:10;79.43;;;34.53;;
17890;SDS011;9071;48.220;14.480;2022-11-20T20:08:12;84.07;;;35.53;;
17890;SDS011;9071;48.220;14.480;2022-11-20T20:13:14;79.30;;;36.93;;
17890;SDS011;9071;48.220;14.480;2022-11-20T20:18:17;80.60;;;37.37;;
17890;SDS011;9071;48.220;14.480;2022-11-20T20:23:20;81.40;;;36.00;;
17890;SDS011;9071;48.220;14.480;2022-11-20T20:28:22;81.73;;;35.47;;
17890;SDS011;9071;48.220;14.480;2022-11-20T20:33:25;81.87;;;37.43;;
17890;SDS011;9071;48.220;14.480;2022-11-20T20:38:27;86.33;;;38.87;;
17890;SDS011;9071;48.220;14.480;2022-11-20T20:43:29;81.57;;;37.90;;
17890;SDS011;9071;48.220;14.480;2022-11-20T20:48:53;73.97;;;35.33;;
17890;SDS011;9071;48.220;14.480;2022-11-20T20:53:55;73.43;;;34.67;;
17890;SDS011;9071;48.220;14.480;2022-11-20T20:58:57;73.93;;;35.63;;
17890;SDS011;9071;48.220;14.480;2022-11-20T21:04:00;76.13;;;35.67;;
17890;SDS011;9071;48.220;14.480;2022-11-20T21:09:02;67.97;;;34.37;;
17890;SDS011;9071;48.220;14.480;2022-11-20T21:14:04;65.03;;;32.23;;
17890;SDS011;9071;48.220;14.480;2022-11-20T21:19:08;66.37;;;32.63;;
17890;SDS011;9071;48.220;14.480;2022-11-20T21:24:10;61.17;;;30.50;;
17890;SDS011;9071;48.220;14.480;2022-11-20T21:29:12;70.33;;;33.30;;
17890;SDS011;9071;48.220;14.480;2022-11-20T21:34:16;67.90;;;32.33;;
17890;SDS011;9071;48.220;14.480;2022-11-20T21:39:18;63.97;;;31.50;;
17890;SDS011;9071;48.220;14.480;2022-11-20T21:44:22;77.87;;;35.53;;
17890;SDS011;9071;48.220;14.480;2022-11-20T21:49:31;80.57;;;37.00;;
17890;SDS011;9071;48.220;14.480;2022-11-20T21:54:33;74.83;;;34.33;;
17890;SDS011;9071;48.220;14.480;2022-11-20T21:59:35;78.20;;;35.67;;
17890;SDS011;9071;48.220;14.480;2022-11-20T22:04:39;83.07;;;37.57;;
17890;SDS011;9071;48.220;14.480;2022-11-20T22:09:41;71.87;;;35.83;;
17890;SDS011;9071;48.220;14.480;2022-11-20T22:14:43;71.53;;;33.83;;
17890;SDS011;9071;48.220;14.480;2022-11-20T22:19:46;73.13;;;33.43;;
17890;SDS011;9071;48.220;14.480;2022-11-20T22:24:48;72.57;;;32.93;;
17890;SDS011;9071;48.220;14.480;2022-11-20T22:29:50;71.07;;;33.60;;
17890;SDS011;9071;48.220;14.480;2022-11-20T22:34:54;63.23;;;29.83;;
17890;SDS011;9071;48.220;14.480;2022-11-20T22:39:56;62.13;;;29.83;;
17890;SDS011;9071;48.220;14.480;2022-11-20T22:44:58;62.40;;;31.10;;
17890;SDS011;9071;48.220;14.480;2022-11-20T22:50:01;60.80;;;29.13;;
17890;SDS011;9071;48.220;14.480;2022-11-20T22:55:04;61.47;;;29.20;;
17890;SDS011;9071;48.220;14.480;2022-11-20T23:00:07;57.53;;;27.53;;
17890;SDS011;9071;48.220;14.480;2022-11-20T23:05:11;58.53;;;28.13;;
17890;SDS011;9071;48.220;14.480;2022-11-20T23:10:14;61.10;;;27.80;;
17890;SDS011;9071;48.220;14.480;2022-11-20T23:15:16;63.47;;;29.50;;
17890;SDS011;9071;48.220;14.480;2022-11-20T23:20:19;50.60;;;26.77;;
17890;SDS011;9071;48.220;14.480;2022-11-20T23:25:21;61.57;;;29.37;;
17890;SDS011;9071;48.220;14.480;2022-11-20T23:30:23;71.63;;;30.37;;
17890;SDS011;9071;48.220;14.480;2022-11-20T23:35:26;68.80;;;31.57;;
17890;SDS011;9071;48.220;14.480;2022-11-20T23:40:28;65.37;;;30.70;;
17890;SDS011;9071;48.220;14.480;2022-11-20T23:45:30;62.03;;;29.83;;
17890;SDS011;9071;48.220;14.480;2022-11-20T23:50:39;69.90;;;31.43;;
17890;SDS011;9071;48.220;14.480;2022-11-20T23:55:43;67.13;;;32.53;;
